sensor_id;sensor_type;location;lat;lon;timestamp;pressure;altitude;pressure_sealevel;temperature;humidity
60465;BME280;46314;52.392;9.758;2024-02-15T00:01:26;100891.84;;;13.79;100.00
60465;BME280;46314;52.392;9.758;2024-02-15T00:03:53;100889.41;;;13.55;100.00
60465;BME280;46314;52.392;9.758;2024-02-15T00:06:19;100891.09;;;12.78;100.00
60465;BME280;46314;52.392;9.758;2024-02-15T00:08:47;100887.63;;;13.59;100.00
60465;BME280;46314;52.392;9.758;2024-02-15T00:11:14;100894.66;;;13.56;100.00
60465;BME280;46314;52.392;9.758;2024-02-15T00:13:40;100893.56;;;13.43;100.00
60465;BME280;46314;52.392;9.758;2024-02-15T00:16:07;100885.31;;;12.88;100.00
60465;BME280;46314;52.392;9.758;2024-02-15T00:18:33;100891.16;;;13.51;100.00
60465;BME280;46314;52.392;9.758;2024-02-15T00:21:00;100892.53;;;14.07;100.00
60465;BME280;46314;52.392;9.758;2024-02-15T00:23:27;100886.03;;;12.52;100.00
60465;BME280;46314;52.392;9.758;2024-02-15T00:25:54;100895.22;;;12.80;100.00
60465;BME280;46314;52.392;9.758;2024-02-15T00:28:21;100889.81;;;12.98;100.00
60465;BME280;46314;52.392;9.758;2024-02-15T00:30:48;100891.16;;;13.51;100.00
60465;BME280;46314;52.392;9.758;2024-02-15T00:33:14;100888.41;;;12.59;100.00
60465;BME280;46314;52.392;9.758;2024-02-15T00:35:41;100891.47;;;13.13;100.00
60465;BME280;46314;52.392;9.758;2024-02-15T00:38:08;100887.72;;;13.17;100.00
60465;BME280;46314;52.392;9.758;2024-02-15T00:40:34;100893.34;;;13.03;100.00
60465;BME280;46314;52.392;9.758;2024-02-15T00:43:03;100892.31;;;12.99;100.00
60465;BME280;46314;52.392;9.758;2024-02-15T00:45:29;100897.13;;;13.07;100.00
60465;BME280;46314;52.392;9.758;2024-02-15T00:47:56;100897.19;;;13.30;100.00
60465;BME280;46314;52.392;9.758;2024-02-15T00:50:23;100899.91;;;13.35;100.00
60465;BME280;46314;52.392;9.758;2024-02-15T00:52:49;100898.81;;;13.45;100.00
60465;BME280;46314;52.392;9.758;2024-02-15T00:55:16;100904.16;;;13.55;100.00
60465;BME280;46314;52.392;9.758;2024-02-15T00:57:42;100901.09;;;13.43;100.00
60465;BME280;46314;52.392;9.758;2024-02-15T01:00:11;100903.03;;;13.06;100.00
60465;BME280;46314;52.392;9.758;2024-02-15T01:02:38;100904.69;;;12.93;100.00
60465;BME280;46314;52.392;9.758;2024-02-15T01:05:05;100912.78;;;13.31;100.00
60465;BME280;46314;52.392;9.758;2024-02-15T01:07:31;100911.03;;;13.21;100.00
60465;BME280;46314;52.392;9.758;2024-02-15T01:09:58;100906.69;;;13.29;100.00
60465;BME280;46314;52.392;9.758;2024-02-15T01:12:24;100917.50;;;13.44;100.00
60465;BME280;46314;52.392;9.758;2024-02-15T01:14:51;100913.91;;;13.44;100.00
60465;BME280;46314;52.392;9.758;2024-02-15T01:17:19;100918.16;;;13.14;100.00
60465;BME280;46314;52.392;9.758;2024-02-15T01:19:45;100921.28;;;12.98;100.00
60465;BME280;46314;52.392;9.758;2024-02-15T01:22:12;100917.19;;;13.46;100.00
60465;BME280;46314;52.392;9.758;2024-02-15T01:24:39;100916.25;;;13.73;100.00
60465;BME280;46314;52.392;9.758;2024-02-15T01:27:05;100911.44;;;13.65;100.00
60465;BME280;46314;52.392;9.758;2024-02-15T01:29:32;100912.66;;;13.22;100.00
60465;BME280;46314;52.392;9.758;2024-02-15T01:31:58;100911.03;;;13.35;100.00
60465;BME280;46314;52.392;9.758;2024-02-15T01:34:26;100920.19;;;13.95;100.00
60465;BME280;46314;52.392;9.758;2024-02-15T01:36:53;100911.53;;;13.74;100.00
60465;BME280;46314;52.392;9.758;2024-02-15T01:39:19;100904.09;;;13.69;100.00
60465;BME280;46314;52.392;9.758;2024-02-15T01:41:47;100907.13;;;13.81;100.00
60465;BME280;46314;52.392;9.758;2024-02-15T01:44:13;100902.56;;;13.86;100.00
60465;BME280;46314;52.392;9.758;2024-02-15T01:46:40;100897.81;;;13.63;100.00
60465;BME280;46314;52.392;9.758;2024-02-15T01:49:06;100901.28;;;13.47;100.00
60465;BME280;46314;52.392;9.758;2024-02-15T01:51:35;100900.84;;;13.53;100.00
60465;BME280;46314;52.392;9.758;2024-02-15T01:54:02;100895.66;;;13.24;100.00
60465;BME280;46314;52.392;9.758;2024-02-15T01:56:29;100891.72;;;13.39;100.00
60465;BME280;46314;52.392;9.758;2024-02-15T01:58:56;100890.91;;;13.61;100.00
60465;BME280;46314;52.392;9.758;2024-02-15T02:01:23;100895.53;;;13.66;100.00
60465;BME280;46314;52.392;9.758;2024-02-15T02:03:50;100884.25;;;14.25;100.00
60465;BME280;46314;52.392;9.758;2024-02-15T02:06:17;100888.88;;;14.61;100.00
60465;BME280;46314;52.392;9.758;2024-02-15T02:08:45;100889.59;;;13.81;100.00
60465;BME280;46314;52.392;9.758;2024-02-15T02:11:11;100895.84;;;14.09;100.00
60465;BME280;46314;52.392;9.758;2024-02-15T02:13:38;100893.66;;;14.06;100.00
60465;BME280;46314;52.392;9.758;2024-02-15T02:16:23;100901.19;;;13.74;100.00
60465;BME280;46314;52.392;9.758;2024-02-15T02:18:50;100888.91;;;13.53;100.00
60465;BME280;46314;52.392;9.758;2024-02-15T02:21:17;100889.53;;;14.35;100.00
60465;BME280;46314;52.392;9.758;2024-02-15T02:23:46;100884.63;;;14.32;100.00
60465;BME280;46314;52.392;9.758;2024-02-15T02:26:16;100882.78;;;14.27;100.00
60465;BME280;46314;52.392;9.758;2024-02-15T02:28:42;100892.38;;;13.81;100.00
60465;BME280;46314;52.392;9.758;2024-02-15T02:31:09;100887.47;;;14.09;100.00
60465;BME280;46314;52.392;9.758;2024-02-15T02:33:35;100881.25;;;14.21;100.00
60465;BME280;46314;52.392;9.758;2024-02-15T02:36:05;100888.31;;;13.87;100.00
60465;BME280;46314;52.392;9.758;2024-02-15T02:38:31;100896.47;;;13.61;100.00
60465;BME280;46314;52.392;9.758;2024-02-15T02:40:58;100896.78;;;14.05;100.00
60465;BME280;46314;52.392;9.758;2024-02-15T02:43:25;100885.69;;;13.91;100.00
60465;BME280;46314;52.392;9.758;2024-02-15T02:45:52;100898.25;;;13.79;100.00
60465;BME280;46314;52.392;9.758;2024-02-15T02:48:18;100892.97;;;13.19;100.00
60465;BME280;46314;52.392;9.758;2024-02-15T02:50:45;100897.69;;;13.91;100.00
60465;BME280;46314;52.392;9.758;2024-02-15T02:53:12;100893.34;;;14.08;100.00
60465;BME280;46314;52.392;9.758;2024-02-15T02:55:39;100885.72;;;13.46;100.00
60465;BME280;46314;52.392;9.758;2024-02-15T02:58:06;100878.81;;;13.66;100.00
60465;BME280;46314;52.392;9.758;2024-02-15T03:00:34;100885.00;;;14.08;100.00
60465;BME280;46314;52.392;9.758;2024-02-15T03:03:00;100882.53;;;13.83;100.00
60465;BME280;46314;52.392;9.758;2024-02-15T03:05:27;100883.28;;;13.98;100.00
60465;BME280;46314;52.392;9.758;2024-02-15T03:07:53;100882.84;;;13.59;100.00
60465;BME280;46314;52.392;9.758;2024-02-15T03:10:20;100888.09;;;14.06;100.00
60465;BME280;46314;52.392;9.758;2024-02-15T03:12:47;100887.34;;;13.47;100.00
60465;BME280;46314;52.392;9.758;2024-02-15T03:15:15;100886.00;;;13.07;100.00
60465;BME280;46314;52.392;9.758;2024-02-15T03:17:47;100884.78;;;13.00;100.00
60465;BME280;46314;52.392;9.758;2024-02-15T03:20:15;100884.81;;;13.36;100.00
60465;BME280;46314;52.392;9.758;2024-02-15T03:22:42;100894.25;;;13.94;100.00
60465;BME280;46314;52.392;9.758;2024-02-15T03:25:08;100888.84;;;13.98;100.00
60465;BME280;46314;52.392;9.758;2024-02-15T03:27:35;100894.41;;;13.30;100.00
60465;BME280;46314;52.392;9.758;2024-02-15T03:30:03;100892.06;;;13.10;100.00
60465;BME280;46314;52.392;9.758;2024-02-15T03:32:29;100895.91;;;13.73;100.00
60465;BME280;46314;52.392;9.758;2024-02-15T03:34:58;100891.09;;;13.64;100.00
60465;BME280;46314;52.392;9.758;2024-02-15T03:37:24;100898.25;;;14.02;100.00
60465;BME280;46314;52.392;9.758;2024-02-15T03:39:51;100899.50;;;13.96;100.00
60465;BME280;46314;52.392;9.758;2024-02-15T03:42:17;100895.16;;;14.04;100.00
60465;BME280;46314;52.392;9.758;2024-02-15T03:44:44;100894.72;;;13.65;100.00
60465;BME280;46314;52.392;9.758;2024-02-15T03:47:10;100895.97;;;13.59;100.00
60465;BME280;46314;52.392;9.758;2024-02-15T03:49:37;100903.44;;;14.26;100.00
60465;BME280;46314;52.392;9.758;2024-02-15T03:52:05;100906.91;;;13.33;100.00
60465;BME280;46314;52.392;9.758;2024-02-15T03:54:31;100902.94;;;13.48;100.00
60465;BME280;46314;52.392;9.758;2024-02-15T03:56:57;100907.25;;;13.76;100.00
60465;BME280;46314;52.392;9.758;2024-02-15T03:59:24;100912.34;;;13.74;100.00
60465;BME280;46314;52.392;9.758;2024-02-15T04:01:51;100908.72;;;14.28;100.00
60465;BME280;46314;52.392;9.758;2024-02-15T04:04:17;100913.06;;;14.11;100.00
60465;BME280;46314;52.392;9.758;2024-02-15T04:06:44;100917.84;;;13.88;100.00
60465;BME280;46314;52.392;9.758;2024-02-15T04:09:11;100909.41;;;14.02;100.00
60465;BME280;46314;52.392;9.758;2024-02-15T04:11:38;100914.56;;;13.86;100.00
60465;BME280;46314;52.392;9.758;2024-02-15T04:14:05;100911.41;;;14.42;100.00
60465;BME280;46314;52.392;9.758;2024-02-15T04:16:31;100916.75;;;13.98;100.00
60465;BME280;46314;52.392;9.758;2024-02-15T04:19:01;100923.88;;;13.81;100.00
60465;BME280;46314;52.392;9.758;2024-02-15T04:21:28;100907.81;;;13.64;100.00
60465;BME280;46314;52.392;9.758;2024-02-15T04:23:54;100916.66;;;14.12;100.00
60465;BME280;46314;52.392;9.758;2024-02-15T04:26:22;100918.34;;;13.68;100.00
60465;BME280;46314;52.392;9.758;2024-02-15T04:28:49;100916.31;;;13.82;100.00
60465;BME280;46314;52.392;9.758;2024-02-15T04:31:15;100912.69;;;14.04;100.00
60465;BME280;46314;52.392;9.758;2024-02-15T04:33:42;100908.91;;;14.31;100.00
60465;BME280;46314;52.392;9.758;2024-02-15T04:36:08;100912.78;;;13.90;100.00
60465;BME280;46314;52.392;9.758;2024-02-15T04:38:35;100919.66;;;13.48;100.00
60465;BME280;46314;52.392;9.758;2024-02-15T04:41:01;100919.56;;;13.53;100.00
60465;BME280;46314;52.392;9.758;2024-02-15T04:43:29;100919.78;;;14.10;100.00
60465;BME280;46314;52.392;9.758;2024-02-15T04:45:56;100918.00;;;14.14;100.00
60465;BME280;46314;52.392;9.758;2024-02-15T04:48:23;100925.41;;;14.19;100.00
60465;BME280;46314;52.392;9.758;2024-02-15T04:50:49;100935.88;;;13.68;100.00
60465;BME280;46314;52.392;9.758;2024-02-15T04:53:16;100925.66;;;14.09;100.00
60465;BME280;46314;52.392;9.758;2024-02-15T04:55:42;100925.75;;;14.57;100.00
60465;BME280;46314;52.392;9.758;2024-02-15T04:58:08;100919.50;;;14.52;100.00
60465;BME280;46314;52.392;9.758;2024-02-15T05:00:36;100917.22;;;14.54;100.00
60465;BME280;46314;52.392;9.758;2024-02-15T05:03:03;100913.50;;;14.05;100.00
60465;BME280;46314;52.392;9.758;2024-02-15T05:05:30;100921.53;;;14.29;100.00
60465;BME280;46314;52.392;9.758;2024-02-15T05:07:56;100924.91;;;14.80;100.00
60465;BME280;46314;52.392;9.758;2024-02-15T05:10:23;100929.47;;;14.75;100.00
60465;BME280;46314;52.392;9.758;2024-02-15T05:12:49;100927.00;;;14.65;100.00
60465;BME280;46314;52.392;9.758;2024-02-15T05:15:16;100929.19;;;14.94;100.00
60465;BME280;46314;52.392;9.758;2024-02-15T05:17:44;100929.22;;;14.23;100.00
60465;BME280;46314;52.392;9.758;2024-02-15T05:20:11;100928.81;;;14.79;100.00
60465;BME280;46314;52.392;9.758;2024-02-15T05:22:38;100926.78;;;13.99;100.00
60465;BME280;46314;52.392;9.758;2024-02-15T05:25:05;100925.00;;;13.80;100.00
60465;BME280;46314;52.392;9.758;2024-02-15T05:27:32;100926.09;;;14.25;100.00
60465;BME280;46314;52.392;9.758;2024-02-15T05:29:59;100921.19;;;13.99;100.00
60465;BME280;46314;52.392;9.758;2024-02-15T05:32:25;100922.97;;;14.26;100.00
60465;BME280;46314;52.392;9.758;2024-02-15T05:34:54;100916.72;;;14.20;100.00
60465;BME280;46314;52.392;9.758;2024-02-15T05:37:20;100911.16;;;13.75;100.00
60465;BME280;46314;52.392;9.758;2024-02-15T05:39:48;100912.25;;;14.11;100.00
60465;BME280;46314;52.392;9.758;2024-02-15T05:42:14;100919.19;;;14.22;100.00
60465;BME280;46314;52.392;9.758;2024-02-15T05:44:41;100907.19;;;13.68;100.00
60465;BME280;46314;52.392;9.758;2024-02-15T05:47:07;100910.00;;;14.22;100.00
60465;BME280;46314;52.392;9.758;2024-02-15T05:49:34;100912.19;;;14.65;100.00
60465;BME280;46314;52.392;9.758;2024-02-15T05:52:02;100909.81;;;14.18;100.00
60465;BME280;46314;52.392;9.758;2024-02-15T05:54:28;100913.56;;;14.13;100.00
60465;BME280;46314;52.392;9.758;2024-02-15T05:56:55;100918.03;;;14.54;100.00
60465;BME280;46314;52.392;9.758;2024-02-15T05:59:21;100909.47;;;14.91;100.00
60465;BME280;46314;52.392;9.758;2024-02-15T06:01:47;100912.84;;;14.62;100.00
60465;BME280;46314;52.392;9.758;2024-02-15T06:04:14;100911.31;;;14.55;100.00
60465;BME280;46314;52.392;9.758;2024-02-15T06:06:41;100919.16;;;14.13;100.00
60465;BME280;46314;52.392;9.758;2024-02-15T06:09:09;100921.13;;;14.13;100.00
60465;BME280;46314;52.392;9.758;2024-02-15T06:11:35;100916.31;;;14.36;100.00
60465;BME280;46314;52.392;9.758;2024-02-15T06:14:02;100921.03;;;14.58;100.00
60465;BME280;46314;52.392;9.758;2024-02-15T06:16:28;100915.31;;;14.63;100.00
60465;BME280;46314;52.392;9.758;2024-02-15T06:18:54;100907.03;;;14.98;100.00
60465;BME280;46314;52.392;9.758;2024-02-15T06:21:21;100912.75;;;14.44;100.00
60465;BME280;46314;52.392;9.758;2024-02-15T06:23:48;100923.47;;;14.19;100.00
60465;BME280;46314;52.392;9.758;2024-02-15T06:26:15;100916.06;;;14.55;100.00
60465;BME280;46314;52.392;9.758;2024-02-15T06:28:42;100921.28;;;14.88;100.00
60465;BME280;46314;52.392;9.758;2024-02-15T06:31:09;100919.25;;;15.20;100.00
60465;BME280;46314;52.392;9.758;2024-02-15T06:33:36;100926.53;;;14.81;100.00
60465;BME280;46314;52.392;9.758;2024-02-15T06:36:06;100923.91;;;14.84;100.00
60465;BME280;46314;52.392;9.758;2024-02-15T06:38:33;100919.00;;;14.81;100.00
60465;BME280;46314;52.392;9.758;2024-02-15T06:40:59;100927.19;;;14.77;100.00
60465;BME280;46314;52.392;9.758;2024-02-15T06:43:27;100932.78;;;14.77;100.00
60465;BME280;46314;52.392;9.758;2024-02-15T06:45:53;100931.94;;;14.46;100.00
60465;BME280;46314;52.392;9.758;2024-02-15T06:48:20;100931.75;;;14.73;100.00
60465;BME280;46314;52.392;9.758;2024-02-15T06:50:47;100929.97;;;14.69;100.00
60465;BME280;46314;52.392;9.758;2024-02-15T06:53:14;100941.16;;;14.46;100.00
60465;BME280;46314;52.392;9.758;2024-02-15T06:55:40;100932.91;;;14.64;100.00
60465;BME280;46314;52.392;9.758;2024-02-15T06:58:07;100927.09;;;15.09;100.00
60465;BME280;46314;52.392;9.758;2024-02-15T07:00:34;100937.28;;;15.05;100.00
60465;BME280;46314;52.392;9.758;2024-02-15T07:03:01;100933.22;;;15.11;100.00
60465;BME280;46314;52.392;9.758;2024-02-15T07:05:27;100930.59;;;15.14;100.00
60465;BME280;46314;52.392;9.758;2024-02-15T07:07:54;100930.59;;;15.14;100.00
60465;BME280;46314;52.392;9.758;2024-02-15T07:10:20;100929.59;;;15.19;100.00
60465;BME280;46314;52.392;9.758;2024-02-15T07:12:47;100917.91;;;15.17;100.00
60465;BME280;46314;52.392;9.758;2024-02-15T07:15:13;100923.22;;;14.38;100.00
60465;BME280;46314;52.392;9.758;2024-02-15T07:17:41;100923.16;;;14.30;100.00
60465;BME280;46314;52.392;9.758;2024-02-15T07:20:10;100918.06;;;15.03;100.00
60465;BME280;46314;52.392;9.758;2024-02-15T07:22:37;100912.69;;;14.67;100.00
60465;BME280;46314;52.392;9.758;2024-02-15T07:25:04;100918.88;;;15.12;100.00
60465;BME280;46314;52.392;9.758;2024-02-15T07:27:31;100909.28;;;13.85;100.00
60465;BME280;46314;52.392;9.758;2024-02-15T07:29:58;100911.53;;;14.36;100.00
60465;BME280;46314;52.392;9.758;2024-02-15T07:32:24;100907.28;;;14.62;100.00
60465;BME280;46314;52.392;9.758;2024-02-15T07:34:52;100912.06;;;14.79;100.00
60465;BME280;46314;52.392;9.758;2024-02-15T07:37:18;100919.03;;;14.90;100.00
60465;BME280;46314;52.392;9.758;2024-02-15T07:39:45;100920.47;;;14.87;100.00
60465;BME280;46314;52.392;9.758;2024-02-15T07:42:11;100920.50;;;14.16;100.00
60465;BME280;46314;52.392;9.758;2024-02-15T07:44:38;100912.41;;;14.77;100.00
60465;BME280;46314;52.392;9.758;2024-02-15T07:47:04;100918.59;;;14.02;100.00
60465;BME280;46314;52.392;9.758;2024-02-15T07:49:31;100919.88;;;14.28;100.00
60465;BME280;46314;52.392;9.758;2024-02-15T07:51:59;100926.28;;;13.97;100.00
60465;BME280;46314;52.392;9.758;2024-02-15T07:54:25;100919.50;;;14.52;100.00
60465;BME280;46314;52.392;9.758;2024-02-15T07:56:52;100923.19;;;14.61;100.00
60465;BME280;46314;52.392;9.758;2024-02-15T07:59:19;100925.63;;;15.11;100.00
60465;BME280;46314;52.392;9.758;2024-02-15T08:01:45;100923.53;;;14.37;100.00
60465;BME280;46314;52.392;9.758;2024-02-15T08:04:12;100922.50;;;14.01;100.00
60465;BME280;46314;52.392;9.758;2024-02-15T08:06:41;100910.88;;;14.62;100.00
60465;BME280;46314;52.392;9.758;2024-02-15T08:09:09;100908.31;;;14.43;100.00
60465;BME280;46314;52.392;9.758;2024-02-15T08:11:36;100916.56;;;13.94;100.00
60465;BME280;46314;52.392;9.758;2024-02-15T08:14:02;100920.50;;;14.25;100.00
60465;BME280;46314;52.392;9.758;2024-02-15T08:16:29;100912.25;;;14.82;100.00
60465;BME280;46314;52.392;9.758;2024-02-15T08:18:55;100912.00;;;14.61;100.00
60465;BME280;46314;52.392;9.758;2024-02-15T08:21:25;100922.16;;;14.97;100.00
60465;BME280;46314;52.392;9.758;2024-02-15T08:23:52;100923.19;;;14.61;100.00
60465;BME280;46314;52.392;9.758;2024-02-15T08:26:20;100920.97;;;14.49;100.00
60465;BME280;46314;52.392;9.758;2024-02-15T08:28:46;100918.66;;;14.91;100.00
60465;BME280;46314;52.392;9.758;2024-02-15T08:31:13;100916.84;;;14.47;100.00
60465;BME280;46314;52.392;9.758;2024-02-15T08:33:39;100911.44;;;14.50;100.00
60465;BME280;46314;52.392;9.758;2024-02-15T08:36:06;100910.56;;;14.64;100.00
60465;BME280;46314;52.392;9.758;2024-02-15T08:38:33;100911.38;;;14.33;100.00
60465;BME280;46314;52.392;9.758;2024-02-15T08:40:59;100914.31;;;14.05;100.00
60465;BME280;46314;52.392;9.758;2024-02-15T08:43:27;100912.00;;;14.61;100.00
60465;BME280;46314;52.392;9.758;2024-02-15T08:45:53;100899.06;;;14.65;100.00
60465;BME280;46314;52.392;9.758;2024-02-15T08:48:20;100894.41;;;15.53;100.00
60465;BME280;46314;52.392;9.758;2024-02-15T08:50:46;100900.41;;;14.45;100.00
60465;BME280;46314;52.392;9.758;2024-02-15T08:53:13;100901.28;;;15.03;100.00
60465;BME280;46314;52.392;9.758;2024-02-15T08:55:39;100900.78;;;15.01;100.00
60465;BME280;46314;52.392;9.758;2024-02-15T08:58:05;100893.06;;;14.49;100.00
60465;BME280;46314;52.392;9.758;2024-02-15T09:00:33;100898.13;;;14.87;100.00
60465;BME280;46314;52.392;9.758;2024-02-15T09:03:00;100906.19;;;14.17;100.00
60465;BME280;46314;52.392;9.758;2024-02-15T09:05:26;100899.34;;;15.21;100.00
60465;BME280;46314;52.392;9.758;2024-02-15T09:07:53;100894.91;;;15.20;100.00
60465;BME280;46314;52.392;9.758;2024-02-15T09:10:20;100902.78;;;15.01;100.00
60465;BME280;46314;52.392;9.758;2024-02-15T09:12:46;100901.81;;;14.25;100.00
60465;BME280;46314;52.392;9.758;2024-02-15T09:15:13;100893.00;;;14.72;100.00
60465;BME280;46314;52.392;9.758;2024-02-15T09:17:41;100894.16;;;14.71;100.00
60465;BME280;46314;52.392;9.758;2024-02-15T09:20:09;100887.50;;;14.49;100.00
60465;BME280;46314;52.392;9.758;2024-02-15T09:22:36;100893.34;;;14.08;100.00
60465;BME280;46314;52.392;9.758;2024-02-15T09:25:03;100885.59;;;14.67;100.00
60465;BME280;46314;52.392;9.758;2024-02-15T09:27:29;100882.53;;;15.04;100.00
60465;BME280;46314;52.392;9.758;2024-02-15T09:29:56;100884.34;;;14.51;100.00
60465;BME280;46314;52.392;9.758;2024-02-15T09:32:22;100885.97;;;14.43;100.00
60465;BME280;46314;52.392;9.758;2024-02-15T09:34:50;100880.59;;;15.04;100.00
60465;BME280;46314;52.392;9.758;2024-02-15T09:37:17;100884.72;;;15.42;100.00
60465;BME280;46314;52.392;9.758;2024-02-15T09:39:43;100880.75;;;14.99;100.00
60465;BME280;46314;52.392;9.758;2024-02-15T09:42:10;100881.03;;;14.40;100.00
60465;BME280;46314;52.392;9.758;2024-02-15T09:44:37;100891.84;;;14.64;100.00
60465;BME280;46314;52.392;9.758;2024-02-15T09:47:04;100889.59;;;14.92;100.00
60465;BME280;46314;52.392;9.758;2024-02-15T09:49:35;100875.59;;;14.75;100.00
60465;BME280;46314;52.392;9.758;2024-02-15T09:52:06;100880.88;;;14.85;100.00
60465;BME280;46314;52.392;9.758;2024-02-15T09:54:33;100881.41;;;15.05;100.00
60465;BME280;46314;52.392;9.758;2024-02-15T09:57:01;100889.13;;;14.90;100.00
60465;BME280;46314;52.392;9.758;2024-02-15T09:59:28;100894.28;;;15.32;100.00
60465;BME280;46314;52.392;9.758;2024-02-15T10:01:58;100902.19;;;14.64;100.00
60465;BME280;46314;52.392;9.758;2024-02-15T10:04:24;100897.13;;;14.74;100.00
60465;BME280;46314;52.392;9.758;2024-02-15T10:06:51;100896.72;;;15.51;100.00
60465;BME280;46314;52.392;9.758;2024-02-15T10:09:26;100908.91;;;15.38;100.00
60465;BME280;46314;52.392;9.758;2024-02-15T10:11:56;100898.84;;;15.10;100.00
60465;BME280;46314;52.392;9.758;2024-02-15T10:14:24;100909.06;;;15.50;100.00
60465;BME280;46314;52.392;9.758;2024-02-15T10:16:50;100907.22;;;15.19;100.00
60465;BME280;46314;52.392;9.758;2024-02-15T10:19:17;100907.03;;;15.07;100.00
60465;BME280;46314;52.392;9.758;2024-02-15T10:21:44;100909.56;;;15.61;100.00
60465;BME280;46314;52.392;9.758;2024-02-15T10:24:13;100920.78;;;14.86;100.00
60465;BME280;46314;52.392;9.758;2024-02-15T10:26:41;100918.25;;;15.15;100.00
60465;BME280;46314;52.392;9.758;2024-02-15T10:29:09;100924.19;;;15.31;100.00
60465;BME280;46314;52.392;9.758;2024-02-15T10:31:37;100922.84;;;15.11;100.00
60465;BME280;46314;52.392;9.758;2024-02-15T10:34:05;100924.34;;;15.26;100.00
60465;BME280;46314;52.392;9.758;2024-02-15T10:36:32;100927.75;;;14.26;100.00
60465;BME280;46314;52.392;9.758;2024-02-15T10:39:13;100919.56;;;14.29;100.00
60465;BME280;46314;52.392;9.758;2024-02-15T10:41:43;100921.53;;;14.29;100.00
60465;BME280;46314;52.392;9.758;2024-02-15T10:44:12;100914.34;;;14.68;100.00
60465;BME280;46314;52.392;9.758;2024-02-15T10:46:40;100910.28;;;14.11;100.00
60465;BME280;46314;52.392;9.758;2024-02-15T10:49:06;100915.00;;;14.42;100.00
60465;BME280;46314;52.392;9.758;2024-02-15T10:51:34;100904.88;;;14.46;100.00
60465;BME280;46314;52.392;9.758;2024-02-15T10:54:02;100898.06;;;14.61;100.00
60465;BME280;46314;52.392;9.758;2024-02-15T10:56:37;100892.44;;;15.19;100.00
60465;BME280;46314;52.392;9.758;2024-02-15T10:59:12;100898.66;;;14.49;100.00
60465;BME280;46314;52.392;9.758;2024-02-15T11:01:40;100891.78;;;14.55;100.00
60465;BME280;46314;52.392;9.758;2024-02-15T11:04:14;100883.03;;;14.48;100.00
60465;BME280;46314;52.392;9.758;2024-02-15T11:06:43;100880.41;;;14.83;100.00
60465;BME280;46314;52.392;9.758;2024-02-15T11:09:10;100873.97;;;14.34;100.00
60465;BME280;46314;52.392;9.758;2024-02-15T11:11:39;100875.34;;;14.54;100.00
60465;BME280;46314;52.392;9.758;2024-02-15T11:14:26;100872.06;;;15.27;100.00
60465;BME280;46314;52.392;9.758;2024-02-15T11:16:53;100869.22;;;14.83;100.00
60465;BME280;46314;52.392;9.758;2024-02-15T11:19:40;100867.59;;;15.00;100.00
60465;BME280;46314;52.392;9.758;2024-02-15T11:22:08;100869.38;;;14.78;100.00
60465;BME280;46314;52.392;9.758;2024-02-15T11:24:35;100873.97;;;14.34;100.00
60465;BME280;46314;52.392;9.758;2024-02-15T11:27:03;100855.06;;;14.71;100.00
60465;BME280;46314;52.392;9.758;2024-02-15T11:29:49;100853.34;;;15.27;100.00
60465;BME280;46314;52.392;9.758;2024-02-15T11:32:36;100847.56;;;14.49;100.00
60465;BME280;46314;52.392;9.758;2024-02-15T11:35:03;100839.00;;;14.36;100.00
60465;BME280;46314;52.392;9.758;2024-02-15T11:37:49;100833.28;;;14.50;100.00
60465;BME280;46314;52.392;9.758;2024-02-15T11:40:17;100836.81;;;14.65;100.00
60465;BME280;46314;52.392;9.758;2024-02-15T11:42:44;100834.34;;;14.72;100.00
60465;BME280;46314;52.392;9.758;2024-02-15T11:45:12;100837.72;;;14.43;100.00
60465;BME280;46314;52.392;9.758;2024-02-15T11:47:40;100821.06;;;14.69;100.00
60465;BME280;46314;52.392;9.758;2024-02-15T11:50:08;100837.88;;;14.37;100.00
60465;BME280;46314;52.392;9.758;2024-02-15T11:52:35;100830.94;;;14.75;100.00
60465;BME280;46314;52.392;9.758;2024-02-15T11:55:05;100828.47;;;14.91;100.00
60465;BME280;46314;52.392;9.758;2024-02-15T11:57:31;100829.81;;;14.93;100.00
60465;BME280;46314;52.392;9.758;2024-02-15T11:59:58;100833.13;;;14.47;100.00
60465;BME280;46314;52.392;9.758;2024-02-15T12:02:26;100813.41;;;14.43;100.00
60465;BME280;46314;52.392;9.758;2024-02-15T12:04:52;100823.22;;;15.42;100.00
60465;BME280;46314;52.392;9.758;2024-02-15T12:07:19;100803.50;;;14.77;100.00
60465;BME280;46314;52.392;9.758;2024-02-15T12:09:45;100813.38;;;14.83;100.00
60465;BME280;46314;52.392;9.758;2024-02-15T12:12:12;100803.19;;;14.96;100.00
60465;BME280;46314;52.392;9.758;2024-02-15T12:14:38;100807.81;;;15.01;100.00
60465;BME280;46314;52.392;9.758;2024-02-15T12:17:06;100810.22;;;15.37;100.00
60465;BME280;46314;52.392;9.758;2024-02-15T12:19:34;100804.78;;;14.62;100.00
60465;BME280;46314;52.392;9.758;2024-02-15T12:22:00;100805.97;;;14.96;100.00
60465;BME280;46314;52.392;9.758;2024-02-15T12:24:30;100800.72;;;15.29;100.00
60465;BME280;46314;52.392;9.758;2024-02-15T12:27:00;100807.97;;;15.22;100.00
60465;BME280;46314;52.392;9.758;2024-02-15T12:29:27;100810.59;;;15.01;100.00
60465;BME280;46314;52.392;9.758;2024-02-15T12:31:53;100806.44;;;15.59;100.00
60465;BME280;46314;52.392;9.758;2024-02-15T12:34:20;100804.00;;;14.96;100.00
60465;BME280;46314;52.392;9.758;2024-02-15T12:36:48;100803.00;;;14.75;100.00
60465;BME280;46314;52.392;9.758;2024-02-15T12:39:24;100801.53;;;15.04;100.00
60465;BME280;46314;52.392;9.758;2024-02-15T12:41:50;100797.75;;;14.82;100.00